Time;durP1;ratioP1;P1;durP2;ratioP2;P2;SDS_P1;SDS_P2;PMS_P1;PMS_P2;Temp;Humidity;BMP_temperature;BMP_pressure;BME280_temperature;BME280_humidity;BME280_pressure;Samples;Min_cycle;Max_cycle;Signal;HPM_P1;HPM_P2
2022/08/23 00:01:38;;;;;;;0.30;0.30;;;;;;;;;;4937187;29;20032;-70
2022/08/23 00:04:06;;;;;;;0.40;0.40;;;;;;;;;;4938870;29;20505;-70
2022/08/23 00:06:32;;;;;;;2.35;0.40;;;;;;;;;;4938954;29;20032;-70
2022/08/23 00:08:59;;;;;;;0.40;0.40;;;;;;;;;;4938795;29;20073;-70
2022/08/23 00:11:27;;;;;;;0.30;0.30;;;;;;;;;;4938675;29;20047;-69
2022/08/23 00:13:54;;;;;;;0.35;0.30;;;;;;;;;;4938765;29;20054;-69
2022/08/23 00:16:20;;;;;;;1.10;0.60;;;;;;;;;;4938710;29;20028;-70
2022/08/23 00:18:47;;;;;;;0.47;0.43;;;;;;;;;;4938470;29;20561;-70
2022/08/23 00:21:13;;;;;;;1.92;0.40;;;;;;;;;;4938728;29;20025;-70
2022/08/23 00:23:40;;;;;;;0.40;0.40;;;;;;;;;;4938774;29;20028;-70
2022/08/23 00:26:06;;;;;;;0.40;0.40;;;;;;;;;;4938695;29;20031;-70
2022/08/23 00:28:32;;;;;;;0.30;0.30;;;;;;;;;;4937535;29;20038;-70
2022/08/23 00:30:59;;;;;;;0.45;0.40;;;;;;;;;;4938601;29;20024;-70
2022/08/23 00:33:26;;;;;;;1.60;0.57;;;;;;;;;;4938342;29;20053;-70
2022/08/23 00:35:52;;;;;;;2.70;0.52;;;;;;;;;;4938299;29;20024;-70
2022/08/23 00:38:18;;;;;;;0.45;0.45;;;;;;;;;;4938546;29;20031;-70
2022/08/23 00:40:50;;;;;;;1.88;0.47;;;;;;;;;;4938193;29;20471;-70
2022/08/23 00:48:55;;;;;;;0.50;0.50;;;;;;;;;;4938108;29;20177;-70
2022/08/23 00:51:34;;;;;;;0.50;0.50;;;;;;;;;;4937831;29;20387;-70
2022/08/23 00:54:00;;;;;;;1.75;0.40;;;;;;;;;;4938069;29;20486;-70
2022/08/23 00:56:29;;;;;;;3.22;0.50;;;;;;;;;;4937937;29;20028;-69
2022/08/23 00:58:55;;;;;;;1.17;0.70;;;;;;;;;;4938490;29;20036;-70
2022/08/23 01:01:21;;;;;;;0.85;0.50;;;;;;;;;;4937925;29;20030;-69
2022/08/23 01:03:50;;;;;;;0.40;0.40;;;;;;;;;;4938193;29;20034;-70
2022/08/23 01:06:26;;;;;;;1.35;0.50;;;;;;;;;;4938438;29;20036;-70
2022/08/23 01:08:58;;;;;;;1.63;0.80;;;;;;;;;;4937762;29;20047;-70
2022/08/23 01:11:34;;;;;;;0.40;0.40;;;;;;;;;;4937789;29;20036;-70
2022/08/23 01:14:10;;;;;;;2.00;0.60;;;;;;;;;;4936771;29;20020;-70
2022/08/23 01:16:45;;;;;;;3.35;0.65;;;;;;;;;;4937579;29;20024;-70
2022/08/23 01:19:17;;;;;;;0.68;0.63;;;;;;;;;;4937613;29;20028;-70
2022/08/23 01:21:46;;;;;;;2.42;0.50;;;;;;;;;;4937571;29;20038;-70
2022/08/23 01:24:13;;;;;;;1.42;0.60;;;;;;;;;;4937571;29;20030;-70
2022/08/23 01:26:40;;;;;;;0.40;0.40;;;;;;;;;;4937507;29;20031;-70
2022/08/23 01:29:07;;;;;;;0.65;0.50;;;;;;;;;;4937656;29;20082;-70
2022/08/23 01:31:34;;;;;;;1.05;0.60;;;;;;;;;;4937039;29;20046;-70
2022/08/23 01:34:02;;;;;;;0.50;0.50;;;;;;;;;;4937386;29;20032;-69
2022/08/23 01:36:29;;;;;;;0.50;0.50;;;;;;;;;;4937464;29;20042;-70
2022/08/23 01:38:56;;;;;;;1.25;0.50;;;;;;;;;;4937518;29;20032;-70
2022/08/23 01:41:22;;;;;;;0.60;0.50;;;;;;;;;;4935921;29;20390;-69
2022/08/23 01:43:49;;;;;;;0.50;0.50;;;;;;;;;;4937430;29;20028;-69
2022/08/23 01:46:17;;;;;;;0.35;0.35;;;;;;;;;;4936819;29;20058;-69
2022/08/23 01:48:45;;;;;;;0.65;0.50;;;;;;;;;;4937103;29;20023;-70
2022/08/23 01:51:11;;;;;;;0.60;0.50;;;;;;;;;;4951868;29;20035;-69
2022/08/23 01:53:39;;;;;;;0.50;0.50;;;;;;;;;;4936941;29;20030;-70
2022/08/23 01:56:07;;;;;;;0.98;0.60;;;;;;;;;;4937011;29;20031;-70
2022/08/23 01:58:34;;;;;;;0.60;0.52;;;;;;;;;;4936783;29;20038;-69
2022/08/23 02:01:00;;;;;;;0.80;0.55;;;;;;;;;;4936588;29;20031;-70
2022/08/23 02:03:27;;;;;;;0.50;0.47;;;;;;;;;;4936810;29;20407;-70
2022/08/23 02:05:54;;;;;;;0.82;0.60;;;;;;;;;;4937179;29;20028;-69
2022/08/23 02:11:07;;;;;;;1.30;0.50;;;;;;;;;;4936946;29;20047;-70
2022/08/23 02:13:34;;;;;;;0.88;0.50;;;;;;;;;;4936477;29;20022;-70
2022/08/23 02:16:00;;;;;;;0.55;0.55;;;;;;;;;;4936672;29;20032;-70
2022/08/23 02:18:26;;;;;;;0.52;0.50;;;;;;;;;;4936931;29;20028;-69
2022/08/23 02:20:53;;;;;;;1.35;0.43;;;;;;;;;;4936409;29;20023;-69
2022/08/23 02:23:20;;;;;;;0.90;0.52;;;;;;;;;;4936551;29;20078;-70
2022/08/23 02:25:46;;;;;;;1.77;0.40;;;;;;;;;;4935553;29;20083;-70
2022/08/23 02:28:13;;;;;;;1.35;0.70;;;;;;;;;;4936290;29;20633;-70
2022/08/23 02:30:39;;;;;;;2.35;0.50;;;;;;;;;;4936237;29;20031;-70
2022/08/23 02:33:06;;;;;;;1.45;0.60;;;;;;;;;;4935404;29;20034;-70
2022/08/23 02:35:32;;;;;;;1.33;0.55;;;;;;;;;;4936251;29;20479;-70
2022/08/23 02:38:02;;;;;;;0.50;0.50;;;;;;;;;;4936189;29;20024;-70
2022/08/23 02:40:28;;;;;;;0.73;0.60;;;;;;;;;;4936363;29;20057;-70
2022/08/23 02:42:55;;;;;;;1.02;0.52;;;;;;;;;;4935944;29;20031;-70
2022/08/23 02:45:22;;;;;;;0.40;0.40;;;;;;;;;;4936327;29;20030;-70
2022/08/23 02:47:48;;;;;;;0.50;0.50;;;;;;;;;;4936048;29;20398;-69
2022/08/23 02:50:14;;;;;;;0.70;0.50;;;;;;;;;;4935951;29;20470;-70
2022/08/23 02:52:41;;;;;;;1.00;0.60;;;;;;;;;;4935946;29;20043;-69
2022/08/23 02:55:07;;;;;;;1.35;0.68;;;;;;;;;;4935905;29;20020;-70
2022/08/23 02:57:33;;;;;;;0.75;0.40;;;;;;;;;;4935449;29;20028;-69
2022/08/23 03:00:00;;;;;;;0.40;0.40;;;;;;;;;;4936153;29;20042;-70
2022/08/23 03:02:26;;;;;;;0.47;0.47;;;;;;;;;;4935626;29;20501;-69
2022/08/23 03:04:52;;;;;;;1.05;0.50;;;;;;;;;;4935881;29;20031;-70
2022/08/23 03:07:19;;;;;;;0.52;0.40;;;;;;;;;;4935829;29;20389;-69
2022/08/23 03:09:45;;;;;;;2.83;0.40;;;;;;;;;;4935496;29;20114;-70
2022/08/23 03:12:11;;;;;;;1.15;0.60;;;;;;;;;;4935400;29;20036;-70
2022/08/23 03:14:38;;;;;;;0.63;0.47;;;;;;;;;;4935645;29;20020;-70
2022/08/23 03:17:06;;;;;;;0.75;0.50;;;;;;;;;;4935438;29;20028;-70
2022/08/23 03:19:33;;;;;;;0.60;0.50;;;;;;;;;;4935523;29;20024;-70
2022/08/23 03:21:59;;;;;;;0.60;0.60;;;;;;;;;;4935648;29;20032;-69
2022/08/23 03:24:25;;;;;;;0.68;0.55;;;;;;;;;;4935776;29;20020;-70
2022/08/23 03:26:52;;;;;;;0.82;0.70;;;;;;;;;;4935085;29;20445;-70
2022/08/23 03:29:18;;;;;;;0.88;0.60;;;;;;;;;;4935622;29;20095;-69
2022/08/23 03:31:45;;;;;;;0.60;0.60;;;;;;;;;;4935385;29;20042;-70
2022/08/23 03:34:12;;;;;;;0.68;0.57;;;;;;;;;;4935625;29;20475;-70
2022/08/23 03:36:38;;;;;;;0.50;0.43;;;;;;;;;;4935046;29;20032;-69
2022/08/23 03:39:05;;;;;;;0.73;0.57;;;;;;;;;;4935253;29;20027;-70
2022/08/23 03:41:32;;;;;;;0.43;0.43;;;;;;;;;;4935295;29;20020;-70
2022/08/23 03:43:58;;;;;;;0.95;0.63;;;;;;;;;;4935316;29;20058;-69
2022/08/23 03:46:24;;;;;;;0.68;0.60;;;;;;;;;;4935247;29;20467;-70
2022/08/23 03:48:52;;;;;;;0.52;0.52;;;;;;;;;;4935343;29;20572;-69
2022/08/23 03:51:18;;;;;;;0.60;0.60;;;;;;;;;;4935165;29;20036;-69
2022/08/23 03:53:46;;;;;;;1.23;0.70;;;;;;;;;;4935339;29;20020;-70
2022/08/23 03:56:23;;;;;;;0.73;0.50;;;;;;;;;;4934898;29;20607;-70
2022/08/23 03:58:49;;;;;;;0.40;0.40;;;;;;;;;;4928811;29;20054;-69
2022/08/23 04:01:16;;;;;;;0.93;0.45;;;;;;;;;;4935304;29;20493;-70
2022/08/23 04:03:42;;;;;;;5.05;2.40;;;;;;;;;;4935360;29;20024;-70
2022/08/23 04:06:10;;;;;;;1.15;0.52;;;;;;;;;;4935300;29;20032;-69
2022/08/23 04:08:36;;;;;;;0.50;0.50;;;;;;;;;;4934900;29;20502;-70
2022/08/23 04:11:03;;;;;;;0.70;0.70;;;;;;;;;;4934564;29;20043;-70
2022/08/23 04:13:29;;;;;;;0.73;0.60;;;;;;;;;;4935013;29;20509;-70
2022/08/23 04:15:56;;;;;;;1.75;0.77;;;;;;;;;;4935310;29;20026;-70
2022/08/23 04:18:22;;;;;;;0.50;0.50;;;;;;;;;;4934891;29;20034;-69
2022/08/23 04:20:50;;;;;;;4.38;0.68;;;;;;;;;;4935050;29;20390;-69
2022/08/23 04:23:16;;;;;;;0.90;0.50;;;;;;;;;;4935021;29;20471;-69
2022/08/23 04:25:44;;;;;;;0.60;0.60;;;;;;;;;;4934429;29;20031;-70
2022/08/23 04:28:11;;;;;;;0.88;0.50;;;;;;;;;;4933826;29;20043;-70
2022/08/23 04:30:37;;;;;;;1.00;0.68;;;;;;;;;;4934775;29;20422;-69
2022/08/23 04:33:04;;;;;;;2.30;0.50;;;;;;;;;;4934935;29;20504;-70
2022/08/23 04:35:31;;;;;;;1.45;0.80;;;;;;;;;;4935549;29;20062;-70
2022/08/23 04:37:57;;;;;;;0.63;0.60;;;;;;;;;;4934900;29;20032;-69
2022/08/23 04:43:08;;;;;;;6.13;0.93;;;;;;;;;;4935052;29;20402;-69
2022/08/23 04:45:37;;;;;;;1.67;0.77;;;;;;;;;;4934652;29;20027;-70
2022/08/23 04:48:04;;;;;;;1.63;0.65;;;;;;;;;;4935547;29;20028;-69
2022/08/23 04:50:31;;;;;;;0.73;0.68;;;;;;;;;;4938003;29;20053;-70
2022/08/23 04:52:57;;;;;;;1.67;0.60;;;;;;;;;;4938146;29;20032;-69
2022/08/23 04:55:24;;;;;;;0.95;0.75;;;;;;;;;;4938292;29;20027;-69
2022/08/23 04:57:50;;;;;;;0.50;0.50;;;;;;;;;;4937697;29;20513;-70
2022/08/23 05:00:17;;;;;;;3.47;0.80;;;;;;;;;;4937903;29;20036;-69
2022/08/23 05:02:45;;;;;;;2.47;0.57;;;;;;;;;;4938068;29;20105;-70
2022/08/23 05:05:11;;;;;;;1.75;0.70;;;;;;;;;;4937970;29;20028;-70
2022/08/23 05:07:38;;;;;;;0.82;0.73;;;;;;;;;;4937316;29;20028;-70
2022/08/23 05:10:08;;;;;;;1.60;0.80;;;;;;;;;;4938333;29;20039;-70
2022/08/23 05:12:34;;;;;;;3.27;0.70;;;;;;;;;;4938035;29;20039;-69
2022/08/23 05:15:01;;;;;;;6.10;0.82;;;;;;;;;;4937646;29;20027;-70
2022/08/23 05:17:27;;;;;;;1.70;0.68;;;;;;;;;;4937591;29;20028;-70
2022/08/23 05:19:54;;;;;;;0.70;0.70;;;;;;;;;;4937833;29;20031;-70
2022/08/23 05:22:20;;;;;;;1.02;0.60;;;;;;;;;;4937405;29;20504;-69
2022/08/23 05:24:46;;;;;;;1.00;0.55;;;;;;;;;;4936745;29;20032;-70
2022/08/23 05:27:13;;;;;;;1.33;0.90;;;;;;;;;;4937236;29;20375;-70
2022/08/23 05:29:39;;;;;;;1.98;0.77;;;;;;;;;;4937510;29;20031;-70
2022/08/23 05:32:05;;;;;;;0.60;0.60;;;;;;;;;;4937738;29;20036;-70
2022/08/23 05:34:32;;;;;;;3.67;0.90;;;;;;;;;;4937810;29;20022;-69
2022/08/23 05:36:58;;;;;;;0.90;0.77;;;;;;;;;;4937157;29;20024;-70
2022/08/23 05:39:25;;;;;;;0.95;0.85;;;;;;;;;;4937678;29;20040;-70
2022/08/23 05:41:51;;;;;;;1.50;0.90;;;;;;;;;;4937290;29;20023;-70
2022/08/23 05:44:17;;;;;;;1.23;0.77;;;;;;;;;;4937276;29;20030;-69
2022/08/23 05:46:44;;;;;;;0.80;0.80;;;;;;;;;;4937175;29;20028;-69
2022/08/23 05:49:10;;;;;;;0.95;0.80;;;;;;;;;;4937091;29;20042;-70
2022/08/23 05:51:37;;;;;;;0.80;0.80;;;;;;;;;;4936793;29;20387;-70
2022/08/23 05:54:05;;;;;;;1.25;1.15;;;;;;;;;;4937396;29;20019;-70
2022/08/23 05:56:33;;;;;;;2.15;1.00;;;;;;;;;;4935749;29;20024;-69
2022/08/23 05:59:01;;;;;;;1.83;0.88;;;;;;;;;;4931796;29;20422;-69
2022/08/23 06:01:28;;;;;;;4.40;1.00;;;;;;;;;;4936799;29;20071;-69
2022/08/23 06:03:54;;;;;;;0.80;0.80;;;;;;;;;;4936860;29;20028;-69
2022/08/23 06:06:21;;;;;;;0.63;0.63;;;;;;;;;;4936243;29;20030;-70
2022/08/23 06:08:48;;;;;;;1.05;0.70;;;;;;;;;;4934394;29;20122;-70
2022/08/23 06:11:16;;;;;;;2.67;0.93;;;;;;;;;;4934845;29;20391;-63
2022/08/23 06:13:44;;;;;;;6.32;4.10;;;;;;;;;;4935011;29;20459;-62
2022/08/23 06:16:12;;;;;;;4.20;0.90;;;;;;;;;;4935642;29;20045;-63
2022/08/23 06:18:38;;;;;;;1.73;0.93;;;;;;;;;;4935876;29;20034;-63
2022/08/23 06:21:06;;;;;;;6.47;1.13;;;;;;;;;;4935927;29;20474;-63
2022/08/23 06:23:33;;;;;;;2.25;0.93;;;;;;;;;;4936415;29;20481;-63
2022/08/23 06:26:00;;;;;;;2.20;0.90;;;;;;;;;;4935849;29;20065;-63
2022/08/23 06:28:31;;;;;;;3.60;1.00;;;;;;;;;;4933312;28;20558;-63
2022/08/23 06:30:57;;;;;;;2.30;0.97;;;;;;;;;;4935321;29;20032;-63
2022/08/23 06:33:25;;;;;;;1.30;0.75;;;;;;;;;;4933901;29;20106;-63
2022/08/23 06:36:01;;;;;;;0.82;0.60;;;;;;;;;;4934086;29;20038;-63
2022/08/23 06:38:27;;;;;;;4.75;1.05;;;;;;;;;;4935489;29;20020;-63
2022/08/23 06:40:59;;;;;;;4.82;1.10;;;;;;;;;;4935228;29;20034;-63
2022/08/23 06:43:26;;;;;;;2.55;0.80;;;;;;;;;;4935721;29;20039;-63
2022/08/23 06:45:52;;;;;;;1.70;0.80;;;;;;;;;;4935620;29;20026;-62
2022/08/23 06:48:19;;;;;;;2.22;0.85;;;;;;;;;;4935434;29;20028;-63
2022/08/23 06:50:45;;;;;;;6.45;0.90;;;;;;;;;;4933885;29;20020;-63
2022/08/23 06:53:11;;;;;;;3.58;0.90;;;;;;;;;;4934969;28;20028;-63
2022/08/23 06:55:38;;;;;;;2.45;1.13;;;;;;;;;;4935399;29;20030;-64
2022/08/23 06:58:04;;;;;;;3.33;1.25;;;;;;;;;;4930557;29;20024;-63
2022/08/23 07:00:30;;;;;;;2.97;1.10;;;;;;;;;;4935276;29;20054;-63
2022/08/23 07:02:57;;;;;;;1.98;1.17;;;;;;;;;;4934681;29;20087;-63
2022/08/23 07:05:23;;;;;;;3.95;1.65;;;;;;;;;;4934436;29;20453;-63
2022/08/23 07:07:49;;;;;;;7.53;1.40;;;;;;;;;;4934686;29;20051;-63
2022/08/23 07:10:15;;;;;;;2.80;1.17;;;;;;;;;;4934835;29;20036;-63
2022/08/23 07:12:42;;;;;;;2.08;1.13;;;;;;;;;;4934549;29;20048;-63
2022/08/23 07:15:09;;;;;;;0.95;0.93;;;;;;;;;;4934779;29;20490;-64
2022/08/23 07:17:35;;;;;;;1.00;0.93;;;;;;;;;;4935238;29;20038;-63
2022/08/23 07:20:02;;;;;;;1.00;1.00;;;;;;;;;;4933979;29;20042;-62
2022/08/23 07:22:28;;;;;;;1.08;0.98;;;;;;;;;;4934832;29;20023;-64
2022/08/23 07:24:54;;;;;;;2.78;0.95;;;;;;;;;;4931379;29;20034;-63
2022/08/23 07:27:21;;;;;;;2.40;0.90;;;;;;;;;;4915736;29;20378;-63
2022/08/23 07:29:47;;;;;;;2.58;0.80;;;;;;;;;;4915571;29;20042;-64
2022/08/23 07:32:13;;;;;;;4.63;1.08;;;;;;;;;;4915417;29;20042;-64
2022/08/23 07:34:40;;;;;;;0.70;0.70;;;;;;;;;;4915407;29;20035;-64
2022/08/23 07:37:06;;;;;;;0.90;0.90;;;;;;;;;;4919296;29;20032;-64
2022/08/23 07:39:32;;;;;;;2.38;0.90;;;;;;;;;;4934525;29;20078;-63
2022/08/23 07:41:59;;;;;;;3.42;1.00;;;;;;;;;;4934578;29;20036;-64
2022/08/23 07:44:26;;;;;;;0.70;0.65;;;;;;;;;;4934431;29;20486;-64
2022/08/23 07:46:52;;;;;;;0.70;0.70;;;;;;;;;;4934121;28;20051;-63
2022/08/23 07:49:18;;;;;;;4.13;0.80;;;;;;;;;;4934398;28;20398;-64
2022/08/23 07:51:46;;;;;;;0.70;0.60;;;;;;;;;;4933747;29;20501;-64
2022/08/23 07:54:13;;;;;;;4.10;0.70;;;;;;;;;;4923902;29;20032;-64
2022/08/23 07:56:40;;;;;;;2.28;1.00;;;;;;;;;;4934069;29;20036;-64
2022/08/23 07:59:07;;;;;;;6.20;1.00;;;;;;;;;;4934089;29;20026;-64
2022/08/23 08:01:33;;;;;;;0.70;0.60;;;;;;;;;;4934163;29;20020;-64
2022/08/23 08:04:01;;;;;;;0.70;0.70;;;;;;;;;;4934370;29;20032;-64
2022/08/23 08:06:31;;;;;;;0.93;0.70;;;;;;;;;;4933557;29;20057;-64
2022/08/23 08:08:58;;;;;;;3.88;0.80;;;;;;;;;;4933863;29;20132;-65
2022/08/23 08:11:26;;;;;;;0.80;0.70;;;;;;;;;;4934909;29;20044;-63
2022/08/23 08:13:53;;;;;;;3.08;0.70;;;;;;;;;;4934441;29;20023;-64
2022/08/23 08:16:23;;;;;;;0.70;0.60;;;;;;;;;;4934139;29;20039;-64
2022/08/23 08:18:50;;;;;;;2.83;0.70;;;;;;;;;;4934499;29;20028;-64
2022/08/23 08:21:17;;;;;;;0.70;0.50;;;;;;;;;;4934435;29;20046;-63
2022/08/23 08:23:43;;;;;;;1.45;0.60;;;;;;;;;;4937048;28;20019;-64
2022/08/23 08:26:10;;;;;;;1.25;0.70;;;;;;;;;;4937886;29;20032;-66
2022/08/23 08:28:37;;;;;;;3.25;0.60;;;;;;;;;;4937603;29;20024;-71
2022/08/23 08:31:04;;;;;;;2.53;0.50;;;;;;;;;;4936131;29;20082;-71
2022/08/23 08:33:31;;;;;;;3.50;0.50;;;;;;;;;;4938039;29;20028;-70
2022/08/23 08:35:58;;;;;;;3.17;0.55;;;;;;;;;;4937812;29;20024;-71
2022/08/23 08:38:24;;;;;;;1.70;0.40;;;;;;;;;;4937813;29;20027;-71
2022/08/23 08:41:00;;;;;;;4.47;0.35;;;;;;;;;;4935167;29;20402;-71
2022/08/23 08:43:34;;;;;;;1.05;0.40;;;;;;;;;;4918698;29;20503;-71
2022/08/23 08:46:10;;;;;;;1.98;0.40;;;;;;;;;;4918336;29;20477;-70
2022/08/23 08:48:41;;;;;;;1.65;0.50;;;;;;;;;;4918514;29;20529;-71
2022/08/23 08:51:17;;;;;;;0.30;0.30;;;;;;;;;;4918192;29;20513;-71
2022/08/23 08:53:44;;;;;;;3.75;0.47;;;;;;;;;;4918335;29;20031;-71
2022/08/23 08:56:14;;;;;;;0.55;0.38;;;;;;;;;;4918461;29;20051;-70
2022/08/23 08:58:49;;;;;;;0.45;0.30;;;;;;;;;;4929678;29;20371;-71
2022/08/23 09:01:19;;;;;;;2.55;0.40;;;;;;;;;;4937075;29;20032;-70
2022/08/23 09:03:45;;;;;;;2.60;0.47;;;;;;;;;;4937488;29;20026;-71
2022/08/23 09:06:21;;;;;;;0.95;0.47;;;;;;;;;;4937037;29;20294;-70
2022/08/23 09:09:03;;;;;;;1.98;0.47;;;;;;;;;;4937070;29;20063;-71
2022/08/23 09:11:38;;;;;;;0.55;0.47;;;;;;;;;;4937350;29;20036;-71
2022/08/23 09:14:13;;;;;;;1.90;0.47;;;;;;;;;;4936671;29;20550;-71
2022/08/23 09:16:51;;;;;;;1.77;0.47;;;;;;;;;;4937010;29;20035;-71
2022/08/23 09:19:19;;;;;;;0.68;0.40;;;;;;;;;;4935771;29;20406;-71
2022/08/23 09:21:48;;;;;;;1.00;0.77;;;;;;;;;;4936824;29;20471;-71
2022/08/23 09:24:15;;;;;;;12.55;1.25;;;;;;;;;;4936920;29;20078;-71
2022/08/23 09:26:41;;;;;;;1.85;0.60;;;;;;;;;;4936050;29;20016;-70
2022/08/23 09:29:17;;;;;;;2.65;0.45;;;;;;;;;;4946687;29;20514;-71
2022/08/23 09:31:44;;;;;;;8.88;1.08;;;;;;;;;;4956121;29;20027;-71
2022/08/23 09:34:19;;;;;;;1.88;0.93;;;;;;;;;;4937498;29;20027;-70
2022/08/23 09:36:46;;;;;;;2.25;0.57;;;;;;;;;;4936526;29;20491;-71
2022/08/23 09:39:31;;;;;;;2.92;0.40;;;;;;;;;;4936348;29;20027;-71
2022/08/23 09:41:58;;;;;;;0.55;0.40;;;;;;;;;;4936440;29;20024;-70
2022/08/23 09:44:37;;;;;;;1.20;0.50;;;;;;;;;;4938984;29;20037;-70
2022/08/23 09:47:07;;;;;;;1.38;0.55;;;;;;;;;;4955510;28;20016;-71
2022/08/23 09:49:34;;;;;;;0.50;0.50;;;;;;;;;;4955451;29;20032;-70
2022/08/23 09:52:01;;;;;;;0.60;0.47;;;;;;;;;;4955728;29;20046;-71
2022/08/23 09:54:35;;;;;;;0.85;0.30;;;;;;;;;;4954267;29;20528;-70
2022/08/23 09:57:02;;;;;;;3.08;0.40;;;;;;;;;;4945142;28;20038;-71
2022/08/23 09:59:38;;;;;;;0.82;0.50;;;;;;;;;;4934850;29;20030;-70
2022/08/23 10:02:06;;;;;;;1.05;0.50;;;;;;;;;;4936069;29;20042;-70
2022/08/23 10:04:40;;;;;;;0.82;0.40;;;;;;;;;;4935383;29;20026;-71
2022/08/23 10:07:25;;;;;;;0.85;0.55;;;;;;;;;;4936118;29;20036;-70
2022/08/23 10:09:51;;;;;;;0.90;0.60;;;;;;;;;;4935957;29;20078;-70
2022/08/23 10:12:18;;;;;;;1.35;0.30;;;;;;;;;;4934239;29;20058;-71
2022/08/23 10:14:44;;;;;;;2.67;0.50;;;;;;;;;;4935882;29;20032;-70
2022/08/23 10:17:33;;;;;;;1.25;0.57;;;;;;;;;;4935926;29;20449;-70
2022/08/23 10:20:20;;;;;;;3.95;0.57;;;;;;;;;;4935790;29;20030;-70
2022/08/23 10:23:07;;;;;;;0.35;0.30;;;;;;;;;;4936024;29;20036;-70
2022/08/23 10:25:41;;;;;;;1.15;0.40;;;;;;;;;;4935356;29;20047;-70
2022/08/23 10:31:14;;;;;;;1.38;0.40;;;;;;;;;;4935943;29;20028;-70
2022/08/23 10:33:40;;;;;;;0.40;0.40;;;;;;;;;;4935773;29;20078;-70
2022/08/23 10:36:15;;;;;;;0.20;0.20;;;;;;;;;;4935623;29;20024;-70
2022/08/23 10:38:55;;;;;;;0.88;0.35;;;;;;;;;;4935668;29;20020;-71
2022/08/23 10:41:22;;;;;;;;;;;;;;;;;;4935794;29;20741;-70
2022/08/23 10:43:56;;;;;;;0.65;0.32;;;;;;;;;;4935654;29;19907;-71
2022/08/23 10:46:22;;;;;;;1.15;0.50;;;;;;;;;;4934831;29;20030;-71
2022/08/23 10:48:50;;;;;;;0.57;0.40;;;;;;;;;;4935624;29;20023;-70
2022/08/23 10:51:19;;;;;;;0.40;0.40;;;;;;;;;;4935282;29;20397;-71
2022/08/23 10:53:48;;;;;;;0.52;0.40;;;;;;;;;;4935131;29;20023;-70
2022/08/23 10:56:18;;;;;;;0.47;0.47;;;;;;;;;;4934742;29;20034;-69
2022/08/23 10:58:44;;;;;;;0.50;0.50;;;;;;;;;;4928935;29;20028;-70
2022/08/23 11:01:14;;;;;;;0.43;0.40;;;;;;;;;;4935098;29;20031;-70
2022/08/23 11:03:43;;;;;;;0.82;0.40;;;;;;;;;;4935110;29;20553;-70
2022/08/23 11:06:24;;;;;;;3.88;0.40;;;;;;;;;;4935113;29;20380;-70
2022/08/23 11:09:17;;;;;;;1.67;0.50;;;;;;;;;;4935183;29;20411;-70
2022/08/23 11:11:50;;;;;;;1.25;0.45;;;;;;;;;;4913430;29;20040;-70
2022/08/23 11:14:27;;;;;;;0.50;0.40;;;;;;;;;;4914166;29;20491;-70
2022/08/23 11:17:01;;;;;;;0.77;0.32;;;;;;;;;;4913923;29;20040;-70
2022/08/23 11:19:46;;;;;;;2.42;0.40;;;;;;;;;;4914168;29;20042;-71
2022/08/23 11:22:19;;;;;;;0.28;0.28;;;;;;;;;;4913797;29;20043;-70
2022/08/23 11:24:53;;;;;;;0.63;0.40;;;;;;;;;;4913587;29;20042;-70
2022/08/23 11:27:26;;;;;;;0.68;0.32;;;;;;;;;;4913851;29;20028;-70
2022/08/23 11:29:52;;;;;;;0.40;0.40;;;;;;;;;;4913670;29;20040;-70
2022/08/23 11:32:22;;;;;;;0.50;0.43;;;;;;;;;;4913209;29;20052;-69
2022/08/23 11:34:57;;;;;;;0.40;0.30;;;;;;;;;;4910983;29;20040;-70
2022/08/23 11:37:26;;;;;;;0.30;0.30;;;;;;;;;;4910814;29;20054;-70
2022/08/23 11:39:58;;;;;;;2.22;0.40;;;;;;;;;;4911863;29;20046;-70
2022/08/23 11:42:24;;;;;;;0.95;0.50;;;;;;;;;;4913221;29;20040;-70
2022/08/23 11:44:51;;;;;;;0.50;0.35;;;;;;;;;;4909025;29;20032;-69
2022/08/23 11:47:27;;;;;;;0.30;0.30;;;;;;;;;;4911819;29;20087;-71
2022/08/23 11:49:56;;;;;;;0.40;0.40;;;;;;;;;;4933969;29;20034;-70
2022/08/23 11:52:28;;;;;;;0.40;0.40;;;;;;;;;;4931471;29;20402;-71
2022/08/23 11:55:01;;;;;;;0.50;0.50;;;;;;;;;;4933705;29;20549;-70
2022/08/23 11:57:39;;;;;;;1.35;0.40;;;;;;;;;;4936598;29;20493;-70
2022/08/23 12:00:20;;;;;;;0.55;0.55;;;;;;;;;;4938385;29;20506;-70
2022/08/23 12:02:46;;;;;;;;;;;;;;;;;;4952617;29;20027;-70
2022/08/23 12:05:21;;;;;;;0.40;0.40;;;;;;;;;;4957323;29;19910;-70
2022/08/23 12:07:51;;;;;;;1.10;0.50;;;;;;;;;;4939734;29;20133;-70
2022/08/23 12:10:44;;;;;;;0.50;0.40;;;;;;;;;;4955907;29;20556;-71
2022/08/23 12:13:19;;;;;;;1.50;0.60;;;;;;;;;;4881484;29;20258;-70
2022/08/23 12:16:03;;;;;;;1.20;0.45;;;;;;;;;;4880578;29;20050;-70
2022/08/23 12:18:30;;;;;;;0.65;0.32;;;;;;;;;;4880873;29;20040;-70
2022/08/23 12:20:58;;;;;;;1.20;0.40;;;;;;;;;;4881200;29;20041;-70
2022/08/23 12:23:24;;;;;;;6.75;0.63;;;;;;;;;;4877023;29;20047;-70
2022/08/23 12:26:03;;;;;;;0.38;0.30;;;;;;;;;;4887048;29;20515;-70
2022/08/23 12:28:39;;;;;;;1.85;0.60;;;;;;;;;;4897274;29;20033;-70
2022/08/23 12:31:24;;;;;;;0.80;0.40;;;;;;;;;;4897787;29;20039;-71
2022/08/23 12:34:23;;;;;;;1.45;0.50;;;;;;;;;;4892059;29;20053;-70
2022/08/23 12:37:07;;;;;;;0.40;0.40;;;;;;;;;;4823234;29;20051;-70
2022/08/23 12:39:35;;;;;;;1.70;0.50;;;;;;;;;;4805351;29;20414;-70
2022/08/23 12:42:04;;;;;;;0.60;0.40;;;;;;;;;;4805349;29;20473;-70
2022/08/23 12:44:31;;;;;;;1.45;0.50;;;;;;;;;;4815300;29;20053;-71
2022/08/23 12:47:09;;;;;;;0.80;0.45;;;;;;;;;;4823356;29;20430;-71
2022/08/23 12:49:35;;;;;;;2.38;0.50;;;;;;;;;;4836188;29;20034;-71
2022/08/23 12:52:07;;;;;;;1.48;0.50;;;;;;;;;;4859380;29;20634;-71
2022/08/23 12:54:37;;;;;;;1.70;0.35;;;;;;;;;;4859964;29;20056;-71
2022/08/23 12:57:10;;;;;;;0.30;0.30;;;;;;;;;;4859622;29;20029;-71
2022/08/23 12:59:36;;;;;;;0.63;0.50;;;;;;;;;;4860280;29;20049;-71
2022/08/23 13:02:05;;;;;;;0.40;0.40;;;;;;;;;;4859801;29;20040;-70
2022/08/23 13:04:32;;;;;;;3.03;0.50;;;;;;;;;;4859530;29;20528;-71
2022/08/23 13:07:01;;;;;;;1.20;0.52;;;;;;;;;;4859529;29;20042;-70
2022/08/23 13:09:36;;;;;;;0.70;0.40;;;;;;;;;;4858802;29;20048;-71
2022/08/23 13:12:05;;;;;;;0.95;0.47;;;;;;;;;;4887735;29;20051;-70
2022/08/23 13:14:31;;;;;;;0.95;0.57;;;;;;;;;;4936710;29;20387;-70
2022/08/23 13:17:11;;;;;;;1.45;0.40;;;;;;;;;;4935940;29;20078;-70
2022/08/23 13:19:37;;;;;;;3.08;0.60;;;;;;;;;;4936868;29;20035;-71
2022/08/23 13:22:10;;;;;;;1.70;0.52;;;;;;;;;;4936645;29;20032;-70
2022/08/23 13:24:42;;;;;;;0.75;0.47;;;;;;;;;;4935203;29;20023;-70
2022/08/23 13:27:19;;;;;;;1.33;0.50;;;;;;;;;;4935228;29;20031;-71
2022/08/23 13:29:53;;;;;;;0.50;0.50;;;;;;;;;;4952794;29;20023;-70
2022/08/23 13:32:34;;;;;;;1.58;0.50;;;;;;;;;;4946486;28;20046;-70
2022/08/23 13:35:19;;;;;;;2.42;0.50;;;;;;;;;;4935330;29;20024;-70
2022/08/23 13:37:46;;;;;;;0.50;0.50;;;;;;;;;;4935585;29;20060;-70
2022/08/23 13:40:17;;;;;;;0.60;0.60;;;;;;;;;;4936351;29;20486;-70
2022/08/23 13:42:51;;;;;;;0.90;0.60;;;;;;;;;;4935474;29;20038;-71
2022/08/23 13:45:24;;;;;;;1.25;0.57;;;;;;;;;;4948221;29;20023;-71
2022/08/23 13:47:54;;;;;;;0.45;0.43;;;;;;;;;;4943110;28;20031;-71
2022/08/23 13:50:25;;;;;;;0.63;0.40;;;;;;;;;;4936321;29;20051;-71
2022/08/23 13:52:51;;;;;;;1.05;0.50;;;;;;;;;;4936423;29;20046;-71
2022/08/23 13:55:17;;;;;;;0.60;0.40;;;;;;;;;;4935445;29;20039;-71
2022/08/23 13:57:44;;;;;;;1.40;0.60;;;;;;;;;;4935944;29;20026;-71
2022/08/23 14:00:11;;;;;;;2.25;0.45;;;;;;;;;;4936341;29;20027;-71
2022/08/23 14:02:37;;;;;;;5.93;0.47;;;;;;;;;;4936174;29;20067;-71
2022/08/23 14:05:05;;;;;;;3.70;0.60;;;;;;;;;;4935145;29;20027;-71
2022/08/23 14:07:31;;;;;;;0.70;0.43;;;;;;;;;;4935840;29;20024;-70
2022/08/23 14:09:58;;;;;;;1.42;0.47;;;;;;;;;;4934875;29;20063;-70
2022/08/23 14:12:29;;;;;;;0.43;0.40;;;;;;;;;;4935647;29;20043;-70
2022/08/23 14:14:58;;;;;;;1.15;0.40;;;;;;;;;;4935851;29;20027;-70
2022/08/23 14:17:25;;;;;;;0.50;0.47;;;;;;;;;;4935423;29;20049;-71
2022/08/23 14:19:52;;;;;;;0.50;0.50;;;;;;;;;;4935676;29;20023;-70
2022/08/23 14:22:18;;;;;;;1.92;0.60;;;;;;;;;;4935023;29;20401;-70
2022/08/23 14:24:45;;;;;;;1.27;0.57;;;;;;;;;;4934984;29;20382;-70
2022/08/23 14:27:11;;;;;;;0.50;0.47;;;;;;;;;;4934452;29;20393;-71
2022/08/23 14:29:38;;;;;;;0.73;0.50;;;;;;;;;;4934846;29;20039;-70
2022/08/23 14:32:04;;;;;;;0.73;0.50;;;;;;;;;;4935545;29;20027;-70
2022/08/23 14:34:31;;;;;;;0.63;0.60;;;;;;;;;;4934779;29;20502;-70
2022/08/23 14:36:58;;;;;;;1.40;0.63;;;;;;;;;;4935840;29;20043;-70
2022/08/23 14:39:24;;;;;;;1.55;0.52;;;;;;;;;;4935443;29;20036;-70
2022/08/23 14:41:51;;;;;;;0.88;0.50;;;;;;;;;;4935566;29;20034;-70
2022/08/23 14:44:17;;;;;;;1.85;0.50;;;;;;;;;;4935453;29;20031;-70
2022/08/23 14:46:44;;;;;;;0.47;0.40;;;;;;;;;;4936212;29;20437;-70
2022/08/23 14:49:11;;;;;;;2.42;0.40;;;;;;;;;;4934581;29;20034;-70
2022/08/23 14:51:40;;;;;;;3.70;0.60;;;;;;;;;;4935235;29;20032;-70
2022/08/23 14:54:07;;;;;;;2.22;0.28;;;;;;;;;;4924041;29;20091;-70
2022/08/23 14:56:34;;;;;;;0.95;0.50;;;;;;;;;;4917474;29;20032;-69
2022/08/23 14:59:00;;;;;;;2.17;0.50;;;;;;;;;;4935003;29;20406;-70
2022/08/23 15:01:26;;;;;;;1.17;0.40;;;;;;;;;;4935045;29;20031;-70
2022/08/23 15:03:53;;;;;;;0.65;0.55;;;;;;;;;;4934959;29;20051;-70
2022/08/23 15:06:20;;;;;;;1.15;0.50;;;;;;;;;;4935456;29;20023;-70
2022/08/23 15:08:47;;;;;;;0.73;0.40;;;;;;;;;;4935075;29;20066;-70